Time;durP1;ratioP1;P1;durP2;ratioP2;P2;SDS_P1;SDS_P2;PMS_P1;PMS_P2;Temp;Humidity;BMP_temperature;BMP_pressure;BME280_temperature;BME280_humidity;BME280_pressure;Samples;Min_cycle;Max_cycle;Signal;HPM_P1;HPM_P2
2021/09/29 00:01:08;;;;;;;7.18;4.90;;;22.40;53.90;;;;;;6234481;27;81911;-64
2021/09/29 00:04:09;;;;;;;6.53;4.70;;;22.40;53.90;;;;;;6224243;27;81009;-64
2021/09/29 00:07:09;;;;;;;10.10;5.13;;;22.40;53.90;;;;;;6228342;27;80641;-64
2021/09/29 00:10:10;;;;;;;7.10;5.40;;;22.30;53.80;;;;;;6234230;27;81798;-63
2021/09/29 00:13:10;;;;;;;8.88;5.10;;;22.30;54.00;;;;;;6236049;27;80499;-63
2021/09/29 00:16:11;;;;;;;5.95;4.30;;;22.30;53.80;;;;;;6235626;27;80290;-63
2021/09/29 00:19:11;;;;;;;9.05;4.97;;;22.30;53.70;;;;;;6227593;27;80430;-63
2021/09/29 00:22:12;;;;;;;7.45;4.80;;;22.30;53.60;;;;;;6234088;28;83772;-63
2021/09/29 00:25:12;;;;;;;6.85;4.53;;;22.30;53.70;;;;;;6234419;27;82512;-63
2021/09/29 00:28:13;;;;;;;7.63;4.82;;;22.30;53.70;;;;;;6231822;27;81679;-63
2021/09/29 00:31:26;;;;;;;8.45;5.13;;;22.30;53.80;;;;;;6229574;28;81585;-63
2021/09/29 00:34:33;;;;;;;7.00;4.57;;;22.30;53.40;;;;;;6220606;27;80328;-63
2021/09/29 00:37:33;;;;;;;7.28;4.75;;;22.30;53.50;;;;;;6225210;28;80586;-63
2021/09/29 00:40:34;;;;;;;7.65;4.75;;;22.30;53.50;;;;;;6233496;27;80402;-64
2021/09/29 00:43:34;;;;;;;7.88;5.38;;;22.30;53.50;;;;;;6234631;28;82970;-63
2021/09/29 00:46:36;;;;;;;6.50;4.45;;;22.30;53.80;;;;;;6232350;27;82031;-63
2021/09/29 00:49:36;;;;;;;6.20;4.05;;;22.30;53.50;;;;;;6226464;28;82682;-62
2021/09/29 00:52:37;;;;;;;10.10;4.95;;;22.30;53.70;;;;;;6223170;28;81553;-62
2021/09/29 00:55:37;;;;;;;7.38;5.20;;;22.30;53.70;;;;;;6232973;27;80294;-63
2021/09/29 00:58:38;;;;;;;7.07;4.38;;;22.30;53.70;;;;;;6234531;27;80509;-63
2021/09/29 01:01:38;;;;;;;8.32;5.70;;;22.30;53.70;;;;;;6233168;28;80386;-63
2021/09/29 01:04:38;;;;;;;8.23;4.78;;;22.30;53.40;;;;;;6225929;28;80878;-63
2021/09/29 01:07:39;;;;;;;14.15;5.28;;;22.30;53.80;;;;;;6223581;28;81129;-63
2021/09/29 01:10:40;;;;;;;5.68;4.25;;;22.30;53.50;;;;;;6233340;27;80511;-63
2021/09/29 01:13:40;;;;;;;7.32;4.45;;;22.30;53.30;;;;;;6209156;28;83523;-64
2021/09/29 01:16:41;;;;;;;6.18;4.40;;;22.30;52.70;;;;;;6233951;28;80279;-63
2021/09/29 01:19:41;;;;;;;6.72;4.35;;;22.30;53.10;;;;;;6228468;27;80499;-63
2021/09/29 01:22:42;;;;;;;6.57;4.45;;;22.30;53.20;;;;;;6230721;28;80693;-64
2021/09/29 01:25:42;;;;;;;7.50;4.68;;;22.30;53.20;;;;;;6231819;27;80741;-63
2021/09/29 01:28:43;;;;;;;7.90;4.75;;;22.30;53.00;;;;;;6229077;27;81784;-63
2021/09/29 01:31:43;;;;;;;7.22;4.75;;;22.30;52.90;;;;;;6227982;28;80472;-63
2021/09/29 01:34:44;;;;;;;5.82;4.25;;;22.20;53.00;;;;;;6230899;27;80523;-63
2021/09/29 01:37:44;;;;;;;6.82;4.82;;;22.20;52.80;;;;;;6233077;27;80542;-63
2021/09/29 01:40:45;;;;;;;6.38;4.53;;;22.20;52.80;;;;;;6231991;28;80498;-63
2021/09/29 01:43:45;;;;;;;8.25;4.75;;;22.20;52.90;;;;;;6233544;27;80510;-63
2021/09/29 01:46:46;;;;;;;6.90;4.65;;;22.20;52.80;;;;;;6233355;27;80339;-63
2021/09/29 01:49:46;;;;;;;5.45;4.28;;;22.20;52.90;;;;;;6233205;27;80541;-63
2021/09/29 01:52:47;;;;;;;5.60;4.47;;;22.20;52.70;;;;;;6232001;28;80819;-63
2021/09/29 01:55:47;;;;;;;7.43;4.75;;;22.20;52.60;;;;;;6229994;27;80418;-61
2021/09/29 01:58:48;;;;;;;6.38;4.30;;;22.20;52.90;;;;;;6232650;27;80414;-62
2021/09/29 02:01:48;;;;;;;6.32;4.25;;;22.20;52.90;;;;;;6225362;28;82583;-62
2021/09/29 02:04:49;;;;;;;5.72;3.97;;;22.20;52.70;;;;;;6220450;28;81141;-62
2021/09/29 02:07:50;;;;;;;6.45;4.05;;;22.20;52.80;;;;;;6228558;27;80867;-62
2021/09/29 02:10:50;;;;;;;6.13;4.35;;;22.20;53.00;;;;;;6230337;28;80534;-62
2021/09/29 02:13:51;;;;;;;6.85;4.75;;;22.10;52.90;;;;;;6232463;27;80332;-62
2021/09/29 02:16:51;;;;;;;5.57;3.72;;;22.20;52.90;;;;;;6232906;27;80396;-63
2021/09/29 02:19:52;;;;;;;7.05;3.97;;;22.20;52.60;;;;;;6230358;27;80530;-63
2021/09/29 02:22:52;;;;;;;5.85;4.38;;;22.20;52.80;;;;;;6230602;27;82079;-62
2021/09/29 02:25:53;;;;;;;9.07;4.35;;;22.20;52.50;;;;;;6231046;27;81494;-62
2021/09/29 02:28:54;;;;;;;6.28;4.20;;;22.20;52.80;;;;;;6220424;28;82240;-63
2021/09/29 02:31:54;;;;;;;7.43;3.58;;;22.20;52.70;;;;;;6229291;28;81614;-63
2021/09/29 02:34:55;;;;;;;6.40;4.13;;;22.20;52.50;;;;;;6231796;27;82664;-63
2021/09/29 02:37:55;;;;;;;6.65;4.38;;;22.20;52.60;;;;;;6230443;28;80606;-64
2021/09/29 02:40:56;;;;;;;10.68;4.68;;;22.20;52.60;;;;;;6229071;27;82547;-65
2021/09/29 02:43:56;;;;;;;6.78;4.07;;;22.20;52.70;;;;;;6224978;28;80439;-65
2021/09/29 02:46:57;;;;;;;5.45;3.85;;;22.10;52.20;;;;;;6231470;27;83520;-65
2021/09/29 02:49:57;;;;;;;7.43;4.30;;;22.10;52.40;;;;;;6218965;28;80142;-64
2021/09/29 02:52:58;;;;;;;5.68;3.88;;;22.20;51.80;;;;;;6239143;28;82167;-64
2021/09/29 02:55:58;;;;;;;6.22;4.43;;;22.10;52.20;;;;;;6227511;28;80363;-63
2021/09/29 02:58:59;;;;;;;4.55;3.72;;;22.10;52.30;;;;;;6229980;27;80598;-63
2021/09/29 03:01:59;;;;;;;5.50;4.00;;;22.10;51.60;;;;;;6230891;27;80984;-64
2021/09/29 03:05:00;;;;;;;5.93;3.90;;;22.10;52.10;;;;;;6231371;27;82468;-64
2021/09/29 03:08:00;;;;;;;5.68;4.40;;;22.10;51.80;;;;;;6229049;27;80590;-64
2021/09/29 03:11:01;;;;;;;5.07;3.70;;;22.10;51.90;;;;;;6225259;28;81345;-65
2021/09/29 03:14:01;;;;;;;4.97;3.78;;;22.10;51.90;;;;;;6224219;27;80690;-65
2021/09/29 03:17:02;;;;;;;5.18;3.75;;;22.10;51.90;;;;;;6232188;27;80352;-64
2021/09/29 03:20:03;;;;;;;7.20;4.07;;;22.10;51.80;;;;;;6243437;28;81860;-64
2021/09/29 03:23:03;;;;;;;6.13;4.13;;;22.10;51.80;;;;;;6233653;27;83017;-64
2021/09/29 03:26:04;;;;;;;5.97;3.80;;;22.10;52.20;;;;;;6234046;27;80892;-63
2021/09/29 03:29:04;;;;;;;6.80;4.15;;;22.10;51.70;;;;;;6234300;27;80410;-63
2021/09/29 03:32:06;;;;;;;7.03;4.25;;;22.10;51.60;;;;;;6236492;27;80524;-64
2021/09/29 03:35:07;;;;;;;6.68;4.13;;;22.10;51.80;;;;;;6230612;27;80763;-64
2021/09/29 03:38:07;;;;;;;6.20;3.58;;;22.10;52.00;;;;;;6235315;27;80903;-63
2021/09/29 03:41:08;;;;;;;6.07;3.90;;;22.10;52.00;;;;;;6228150;27;80879;-62
2021/09/29 03:44:08;;;;;;;6.30;4.18;;;22.10;51.50;;;;;;6233520;27;81243;-63
2021/09/29 03:47:09;;;;;;;7.07;4.18;;;22.10;51.60;;;;;;6230912;28;80544;-62
2021/09/29 03:50:09;;;;;;;8.02;4.20;;;22.10;51.60;;;;;;6234287;27;81200;-61
2021/09/29 03:53:10;;;;;;;6.50;3.97;;;22.10;52.30;;;;;;6233122;27;80934;-62
2021/09/29 03:56:10;;;;;;;8.23;4.18;;;22.10;51.60;;;;;;6234471;27;81718;-63
2021/09/29 03:59:11;;;;;;;6.22;3.88;;;22.10;51.70;;;;;;6226334;27;80245;-63
2021/09/29 04:02:11;;;;;;;7.68;4.38;;;22.10;52.20;;;;;;6236268;27;80894;-63
2021/09/29 04:05:12;;;;;;;9.80;3.78;;;22.10;51.80;;;;;;6233453;27;80786;-63
2021/09/29 04:08:12;;;;;;;5.97;3.83;;;22.20;51.90;;;;;;6235359;28;80506;-62
2021/09/29 04:11:13;;;;;;;5.85;3.80;;;22.20;52.00;;;;;;6233727;28;82279;-63
2021/09/29 04:14:15;;;;;;;6.90;4.22;;;22.20;51.90;;;;;;6231577;27;81715;-63
2021/09/29 04:17:16;;;;;;;12.75;4.03;;;22.20;52.40;;;;;;6227788;28;80455;-64
2021/09/29 04:20:16;;;;;;;9.02;3.88;;;22.20;52.50;;;;;;6230270;28;80350;-64
2021/09/29 04:23:17;;;;;;;13.32;5.13;;;22.20;52.50;;;;;;6225570;27;80406;-63
2021/09/29 04:26:17;;;;;;;13.77;5.40;;;22.20;53.10;;;;;;6233882;28;81307;-64
2021/09/29 04:29:18;;;;;;;14.93;5.80;;;22.10;52.40;;;;;;6233815;28;80564;-64
2021/09/29 04:32:18;;;;;;;21.02;6.00;;;22.10;52.50;;;;;;6228680;27;81571;-62
2021/09/29 04:35:19;;;;;;;10.55;5.22;;;22.10;53.00;;;;;;6232206;28;80240;-62
2021/09/29 04:38:19;;;;;;;14.93;5.78;;;22.10;52.60;;;;;;6231893;27;80764;-64
2021/09/29 04:41:20;;;;;;;11.85;5.45;;;22.10;53.20;;;;;;6233906;28;81474;-64
2021/09/29 04:44:21;;;;;;;14.75;5.50;;;22.10;52.70;;;;;;6221230;27;80491;-64
2021/09/29 04:47:21;;;;;;;13.65;5.65;;;22.10;53.00;;;;;;6222037;27;83055;-63
2021/09/29 04:50:22;;;;;;;14.63;6.18;;;22.20;53.10;;;;;;6227771;27;80605;-62
2021/09/29 04:53:22;;;;;;;14.05;5.68;;;22.20;52.80;;;;;;6234246;27;82015;-64
2021/09/29 04:56:23;;;;;;;14.65;5.30;;;22.20;52.90;;;;;;6233370;27;80968;-63
2021/09/29 04:59:23;;;;;;;11.77;5.10;;;22.20;53.00;;;;;;6233401;27;81027;-64
2021/09/29 05:02:24;;;;;;;10.43;5.32;;;22.20;53.70;;;;;;6227648;27;80410;-63
2021/09/29 05:05:24;;;;;;;16.00;6.03;;;22.20;53.30;;;;;;6229146;27;83089;-63
2021/09/29 05:08:25;;;;;;;12.90;5.38;;;22.20;54.10;;;;;;6234003;27;80866;-64
2021/09/29 05:11:25;;;;;;;11.15;5.07;;;22.20;53.60;;;;;;6229025;27;81448;-63
2021/09/29 05:14:26;;;;;;;12.00;6.00;;;22.20;54.10;;;;;;6234118;27;80414;-63
2021/09/29 05:17:26;;;;;;;10.88;5.55;;;22.20;53.30;;;;;;6223634;27;81412;-63
2021/09/29 05:20:27;;;;;;;11.20;5.43;;;22.20;53.70;;;;;;6229990;27;81486;-64
2021/09/29 05:23:28;;;;;;;11.82;5.28;;;22.10;53.40;;;;;;6224395;27;81185;-63
2021/09/29 05:26:28;;;;;;;12.57;5.07;;;22.10;53.60;;;;;;6228468;27;80384;-63
2021/09/29 05:29:29;;;;;;;11.48;5.03;;;22.20;53.30;;;;;;6231722;27;81041;-63
2021/09/29 05:32:29;;;;;;;11.57;5.10;;;22.20;54.60;;;;;;6222386;28;81331;-64
2021/09/29 05:35:30;;;;;;;9.95;4.88;;;22.20;54.00;;;;;;6200978;28;80352;-63
2021/09/29 05:38:30;;;;;;;11.98;5.22;;;22.10;53.30;;;;;;6207696;28;86151;-64
2021/09/29 05:41:31;;;;;;;11.85;5.10;;;22.10;53.50;;;;;;6205994;28;80989;-63
2021/09/29 05:44:32;;;;;;;17.10;5.47;;;22.10;53.70;;;;;;6207433;28;80206;-63
2021/09/29 05:47:33;;;;;;;11.77;5.40;;;22.20;54.10;;;;;;6208336;28;80768;-64
2021/09/29 05:50:36;;;;;;;10.10;5.55;;;22.20;53.80;;;;;;6205945;28;80386;-63
2021/09/29 05:53:37;;;;;;;11.25;5.22;;;22.10;54.40;;;;;;6210493;28;81478;-68
2021/09/29 05:56:37;;;;;;;15.40;6.03;;;22.10;54.30;;;;;;6232773;27;80752;-63
2021/09/29 05:59:38;;;;;;;12.30;5.90;;;22.10;53.90;;;;;;6232686;27;82339;-63
2021/09/29 06:02:38;;;;;;;21.15;6.18;;;22.10;54.30;;;;;;6229390;27;80905;-62
2021/09/29 06:05:39;;;;;;;12.35;5.35;;;22.10;53.90;;;;;;6225940;27;81837;-63
2021/09/29 06:08:39;;;;;;;11.02;5.57;;;22.10;54.40;;;;;;6229476;27;80376;-61
2021/09/29 06:11:40;;;;;;;7.68;4.80;;;22.10;53.80;;;;;;6231189;27;80676;-63
2021/09/29 06:14:43;;;;;;;12.00;6.43;;;22.10;54.20;;;;;;6227064;27;80321;-63
2021/09/29 06:17:52;;;;;;;10.68;5.68;;;22.10;54.00;;;;;;6227522;28;80265;-62
2021/09/29 06:20:52;;;;;;;10.30;5.65;;;22.10;53.60;;;;;;6230565;27;81715;-61
2021/09/29 06:23:53;;;;;;;9.07;5.65;;;22.10;53.30;;;;;;6229191;27;80457;-61
2021/09/29 06:26:54;;;;;;;8.18;5.97;;;22.10;53.50;;;;;;6228637;27;80365;-61
2021/09/29 06:29:55;;;;;;;12.30;6.30;;;22.10;53.30;;;;;;6227887;27;80464;-61
2021/09/29 06:32:55;;;;;;;11.38;5.80;;;22.10;53.10;;;;;;6216896;28;87042;-61
2021/09/29 06:35:56;;;;;;;12.63;6.20;;;22.10;53.20;;;;;;6189471;28;81182;-62
2021/09/29 06:38:56;;;;;;;8.55;6.00;;;22.00;52.90;;;;;;6214497;28;81927;-61
2021/09/29 06:41:57;;;;;;;9.57;6.20;;;22.00;52.70;;;;;;6229348;28;80972;-65
2021/09/29 06:44:57;;;;;;;11.02;5.75;;;22.00;53.10;;;;;;6223777;28;80585;-62
2021/09/29 06:47:58;;;;;;;9.23;6.10;;;22.00;53.30;;;;;;6230968;27;80747;-62
2021/09/29 06:50:58;;;;;;;11.38;5.57;;;22.00;54.00;;;;;;6231997;28;80561;-62
2021/09/29 06:53:59;;;;;;;12.00;7.05;;;22.00;53.50;;;;;;6237904;28;80656;-61
2021/09/29 06:56:59;;;;;;;9.93;6.25;;;22.00;52.90;;;;;;6221544;28;81427;-62
2021/09/29 07:00:00;;;;;;;12.40;6.40;;;22.00;53.00;;;;;;6227260;28;82468;-62
2021/09/29 07:03:00;;;;;;;11.57;6.93;;;22.00;53.10;;;;;;6231294;27;80967;-62
2021/09/29 07:06:01;;;;;;;10.82;6.57;;;22.00;53.20;;;;;;6223467;28;80260;-62
2021/09/29 07:09:02;;;;;;;12.00;7.50;;;22.00;52.60;;;;;;6228644;27;81059;-61
2021/09/29 07:12:02;;;;;;;10.13;6.28;;;22.00;52.70;;;;;;6230475;28;80720;-62
2021/09/29 07:15:03;;;;;;;14.48;7.25;;;22.00;52.50;;;;;;6225877;28;81800;-63
2021/09/29 07:18:04;;;;;;;14.30;6.55;;;22.00;52.70;;;;;;6226405;27;80553;-61
2021/09/29 07:21:05;;;;;;;13.70;6.97;;;22.00;52.40;;;;;;6224085;28;80496;-62
2021/09/29 07:24:05;;;;;;;12.52;6.57;;;22.00;52.70;;;;;;6229218;27;80455;-62
2021/09/29 07:27:06;;;;;;;11.60;7.35;;;22.00;52.40;;;;;;6230250;27;81313;-63
2021/09/29 07:30:06;;;;;;;11.88;7.82;;;22.00;52.30;;;;;;6233853;27;81146;-62
2021/09/29 07:33:07;;;;;;;13.00;7.32;;;22.00;52.30;;;;;;6224516;28;80531;-62
2021/09/29 07:36:08;;;;;;;14.27;7.63;;;22.00;52.10;;;;;;6223742;27;80632;-62
2021/09/29 07:39:08;;;;;;;11.95;7.22;;;22.00;52.10;;;;;;6231133;27;80522;-62
2021/09/29 07:42:09;;;;;;;11.82;7.38;;;22.00;52.10;;;;;;6227637;28;80461;-62
2021/09/29 07:45:09;;;;;;;13.02;7.13;;;22.00;52.00;;;;;;6228619;27;81256;-62
2021/09/29 07:48:10;;;;;;;14.07;8.48;;;22.00;51.90;;;;;;6228686;28;83575;-60
2021/09/29 07:51:13;;;;;;;11.18;7.50;;;22.00;52.10;;;;;;6230363;28;80666;-61
2021/09/29 07:54:13;;;;;;;11.77;7.78;;;22.00;51.90;;;;;;6229515;28;80137;-61
2021/09/29 07:57:14;;;;;;;13.00;8.30;;;22.00;52.00;;;;;;6229702;27;81062;-61
2021/09/29 08:00:14;;;;;;;12.20;7.75;;;22.00;52.80;;;;;;6230794;28;81500;-59
2021/09/29 08:03:15;;;;;;;10.77;7.57;;;22.00;52.20;;;;;;6227638;27;80840;-60
2021/09/29 08:06:15;;;;;;;14.05;8.30;;;22.00;51.70;;;;;;6234362;28;82891;-61
2021/09/29 08:09:16;;;;;;;10.23;7.80;;;22.00;52.10;;;;;;6232096;28;80708;-59
2021/09/29 08:12:16;;;;;;;10.55;7.65;;;22.00;52.00;;;;;;6226432;27;80937;-60
2021/09/29 08:15:17;;;;;;;13.48;8.75;;;22.00;52.40;;;;;;6230943;27;80468;-60
2021/09/29 08:18:18;;;;;;;17.63;10.65;;;22.00;54.30;;;;;;6232515;27;80304;-61
2021/09/29 08:21:23;;;;;;;26.08;11.25;;;21.90;51.70;;;;;;6234587;28;83058;-61
2021/09/29 08:24:35;;;;;;;18.58;12.32;;;21.70;51.10;;;;;;6230193;27;85448;-61
2021/09/29 08:27:48;;;;;;;21.08;13.10;;;21.60;50.70;;;;;;6228827;27;83507;-61
2021/09/29 08:34:13;;;;;;;18.95;12.50;;;21.50;50.60;;;;;;6228395;27;84780;-61
2021/09/29 08:40:21;;;;;;;27.63;13.98;;;21.30;50.60;;;;;;6229522;27;83275;-60
2021/09/29 08:47:08;;;;;;;22.27;13.15;;;21.20;50.60;;;;;;6202919;27;87422;-61
2021/09/29 08:53:29;;;;;;;23.73;13.95;;;21.20;50.50;;;;;;6202960;27;82833;-61
2021/09/29 09:16:46;;;;;;;21.13;12.30;;;21.40;51.40;;;;;;6153104;28;89375;-61
2021/09/29 09:19:47;;;;;;;19.55;11.55;;;21.50;51.60;;;;;;6170817;28;83298;-61
2021/09/29 09:22:47;;;;;;;20.42;12.65;;;21.50;51.40;;;;;;6216603;27;84998;-61
2021/09/29 09:25:48;;;;;;;20.30;12.18;;;21.50;51.30;;;;;;6228405;27;82808;-61
2021/09/29 09:28:48;;;;;;;19.33;11.50;;;21.50;51.10;;;;;;6218412;28;85284;-61
2021/09/29 09:31:49;;;;;;;17.52;12.35;;;21.50;51.20;;;;;;6228168;27;83083;-61
2021/09/29 09:34:49;;;;;;;19.00;11.35;;;21.50;51.20;;;;;;6229212;28;82887;-61
2021/09/29 09:37:55;;;;;;;16.80;11.40;;;21.50;51.30;;;;;;6224952;28;84520;-61
2021/09/29 09:40:56;;;;;;;25.70;13.30;;;21.40;51.30;;;;;;6228092;27;83281;-61
2021/09/29 09:43:57;;;;;;;18.77;12.10;;;21.50;51.40;;;;;;6221546;27;83747;-61
2021/09/29 09:46:59;;;;;;;21.88;12.45;;;21.50;51.40;;;;;;6219666;28;84355;-61
2021/09/29 09:50:00;;;;;;;19.25;11.35;;;21.50;51.30;;;;;;6227807;27;83304;-65
2021/09/29 09:53:00;;;;;;;20.30;12.23;;;21.50;51.90;;;;;;6225516;27;85200;-63
2021/09/29 09:56:01;;;;;;;19.33;11.35;;;21.50;51.50;;;;;;6219367;28;83611;-62
2021/09/29 09:59:01;;;;;;;22.90;12.05;;;21.50;51.50;;;;;;6226387;28;83679;-63
2021/09/29 10:02:02;;;;;;;20.38;12.13;;;21.50;51.60;;;;;;6229159;27;83549;-62
2021/09/29 10:05:02;;;;;;;19.17;12.00;;;21.50;52.00;;;;;;6228604;27;83707;-62
2021/09/29 10:08:06;;;;;;;23.60;11.55;;;21.50;51.60;;;;;;6228629;27;83666;-62
2021/09/29 10:11:09;;;;;;;42.55;15.70;;;21.50;52.00;;;;;;6227887;27;84129;-61
2021/09/29 10:14:38;;;;;;;66.20;16.25;;;21.50;52.80;;;;;;6226414;27;83274;-61
2021/09/29 10:26:07;;;;;;;49.95;16.67;;;21.60;52.40;;;;;;6221942;28;83054;-61
2021/09/29 10:27:38;;;;;;;57.05;16.48;;;21.60;52.40;;;;;;6228527;28;83178;-61
2021/09/29 10:31:00;;;;;;;54.42;16.67;;;21.70;52.90;;;;;;6228038;27;83187;-61
2021/09/29 10:34:05;;;;;;;61.50;16.17;;;21.70;53.10;;;;;;6208713;27;88689;-62
2021/09/29 10:40:19;;;;;;;38.60;15.88;;;21.70;53.50;;;;;;6198551;28;90489;-62
2021/09/29 10:43:22;;;;;;;33.53;14.85;;;21.80;53.60;;;;;;6200561;27;83214;-61
2021/09/29 10:46:35;;;;;;;33.88;16.35;;;21.80;53.70;;;;;;6194632;27;83152;-61
2021/09/29 10:52:55;;;;;;;25.05;15.48;;;21.90;52.80;;;;;;6227829;28;88120;-62
2021/09/29 11:29:20;;;;;;;23.83;13.15;;;22.00;51.50;;;;;;6219803;28;83203;-61
2021/09/29 11:32:33;;;;;;;27.52;13.57;;;22.10;51.80;;;;;;6223001;28;89247;-61
2021/09/29 11:35:48;;;;;;;25.08;13.15;;;22.10;51.60;;;;;;6219865;27;83111;-62
2021/09/29 12:08:36;;;;;;;18.08;11.48;;;22.10;52.00;;;;;;6231561;28;84171;-62
2021/09/29 12:11:55;;;;;;;19.65;11.73;;;22.10;52.40;;;;;;6230970;27;83947;-61
2021/09/29 12:14:55;;;;;;;15.80;11.48;;;22.10;52.60;;;;;;6236314;28;90583;-62
2021/09/29 12:17:57;;;;;;;18.17;11.65;;;22.20;52.40;;;;;;6233713;28;85334;-62
2021/09/29 12:20:57;;;;;;;18.02;10.70;;;22.20;52.60;;;;;;6228397;27;83491;-61
2021/09/29 12:23:58;;;;;;;16.95;10.80;;;22.20;52.80;;;;;;6226597;28;83307;-61
2021/09/29 12:27:01;;;;;;;23.98;11.43;;;22.20;52.90;;;;;;6228298;27;83505;-61
2021/09/29 12:30:04;;;;;;;14.15;10.27;;;22.20;52.80;;;;;;6228196;28;83189;-60
2021/09/29 12:36:14;;;;;;;20.45;10.90;;;22.20;52.90;;;;;;6231878;27;83151;-62
2021/09/29 12:39:15;;;;;;;17.23;10.13;;;22.30;53.00;;;;;;6223682;28;83276;-62
2021/09/29 12:42:15;;;;;;;17.77;11.20;;;22.30;53.00;;;;;;6225100;28;84366;-64
2021/09/29 12:45:16;;;;;;;16.95;10.52;;;22.30;53.40;;;;;;6221371;28;84465;-61
2021/09/29 12:48:17;;;;;;;17.27;10.75;;;22.40;53.30;;;;;;6222384;27;84123;-62
2021/09/29 12:51:20;;;;;;;18.88;11.80;;;22.40;53.40;;;;;;6227641;28;83207;-63
2021/09/29 12:54:23;;;;;;;21.65;10.98;;;22.40;53.70;;;;;;6229289;27;84065;-62
2021/09/29 12:57:24;;;;;;;14.65;10.48;;;22.40;53.80;;;;;;6231559;27;84277;-61
2021/09/29 13:00:24;;;;;;;16.15;10.88;;;22.50;54.00;;;;;;6231635;27;82862;-62
2021/09/29 13:03:25;;;;;;;15.07;10.35;;;22.50;53.60;;;;;;6229605;27;83444;-61
2021/09/29 13:06:25;;;;;;;17.77;11.68;;;22.50;53.80;;;;;;6229255;27;87095;-62
2021/09/29 13:09:26;;;;;;;20.50;11.43;;;22.50;53.90;;;;;;6232859;28;82939;-62
2021/09/29 13:12:26;;;;;;;21.30;11.50;;;22.50;53.80;;;;;;6228562;27;83268;-62
2021/09/29 13:15:27;;;;;;;17.98;11.13;;;22.50;54.30;;;;;;6229976;28;83038;-62
2021/09/29 13:18:39;;;;;;;15.43;10.32;;;22.50;53.90;;;;;;6229319;27;83005;-63
2021/09/29 13:21:48;;;;;;;15.93;10.27;;;22.50;53.90;;;;;;6230737;28;83807;-62
2021/09/29 13:37:53;;;;;;;22.92;10.65;;;22.40;54.20;;;;;;6224008;27;87453;-61
2021/09/29 13:40:54;;;;;;;17.90;10.48;;;22.40;54.20;;;;;;6226392;28;83811;-62
2021/09/29 13:43:54;;;;;;;16.20;10.55;;;22.50;54.20;;;;;;6230886;27;84013;-63
2021/09/29 13:46:55;;;;;;;15.52;9.73;;;22.40;54.20;;;;;;6226940;27;87174;-63
2021/09/29 13:49:56;;;;;;;13.55;9.27;;;22.40;54.30;;;;;;6227607;27;83011;-62
2021/09/29 13:52:58;;;;;;;14.70;9.73;;;22.40;54.40;;;;;;6225234;28;80368;-62
2021/09/29 13:56:02;;;;;;;16.02;8.90;;;22.40;54.40;;;;;;6232392;27;80552;-61
2021/09/29 13:59:20;;;;;;;21.23;10.18;;;22.40;54.50;;;;;;6230684;27;81489;-64
2021/09/29 14:02:39;;;;;;;19.13;9.93;;;22.40;54.60;;;;;;6227292;27;83555;-62
2021/09/29 14:28:55;;;;;;;13.75;9.35;;;22.40;56.20;;;;;;6219161;28;87408;-62
2021/09/29 14:34:56;;;;;;;14.73;9.50;;;22.30;56.80;;;;;;6222257;28;84696;-63
2021/09/29 14:37:57;;;;;;;16.15;9.63;;;22.30;57.10;;;;;;6227978;28;83121;-60
2021/09/29 14:40:58;;;;;;;18.48;10.60;;;22.30;57.70;;;;;;6222091;27;80348;-62
2021/09/29 14:43:58;;;;;;;16.55;9.85;;;22.30;57.30;;;;;;6221396;28;83277;-62
2021/09/29 14:46:59;;;;;;;16.80;10.20;;;22.30;57.40;;;;;;6224952;28;84222;-63
2021/09/29 14:49:59;;;;;;;20.73;11.05;;;22.30;58.00;;;;;;6222037;27;85605;-62
2021/09/29 14:53:01;;;;;;;23.42;10.82;;;22.20;57.90;;;;;;6221696;27;83443;-61
2021/09/29 14:56:01;;;;;;;17.58;9.68;;;22.30;57.60;;;;;;6216600;28;82850;-61
2021/09/29 14:59:02;;;;;;;17.42;10.38;;;22.30;57.60;;;;;;6224293;27;82910;-61
2021/09/29 15:02:03;;;;;;;20.38;10.65;;;22.30;58.10;;;;;;6220062;28;83125;-62
2021/09/29 15:05:03;;;;;;;19.65;10.48;;;22.30;58.50;;;;;;6217989;28;82974;-62
2021/09/29 15:08:04;;;;;;;17.83;9.80;;;22.30;58.50;;;;;;6220752;28;83735;-62
2021/09/29 15:11:05;;;;;;;16.95;8.88;;;22.30;58.30;;;;;;6219973;28;83659;-62
2021/09/29 15:14:10;;;;;;;21.35;9.90;;;22.40;58.50;;;;;;6225613;28;80958;-63
2021/09/29 15:17:15;;;;;;;20.10;10.40;;;22.30;58.10;;;;;;6227226;27;81311;-63
2021/09/29 15:56:12;;;;;;;21.50;11.88;;;22.30;57.70;;;;;;6194714;28;87362;-64
2021/09/29 16:05:30;;;;;;;20.73;12.57;;;22.20;57.70;;;;;;6193707;28;83420;-63
2021/09/29 16:08:40;;;;;;;22.08;13.02;;;22.20;57.70;;;;;;6188602;28;83073;-61
2021/09/29 16:30:37;;;;;;;29.23;14.25;;;22.30;59.40;;;;;;6198771;28;83253;-61
2021/09/29 16:36:41;;;;;;;22.45;12.73;;;22.30;59.50;;;;;;6200588;27;84221;-61
2021/09/29 16:39:43;;;;;;;26.88;13.65;;;22.30;59.70;;;;;;6199202;27;83148;-61
2021/09/29 16:42:47;;;;;;;29.67;14.65;;;22.30;59.60;;;;;;6197548;28;84254;-61
2021/09/29 16:45:48;;;;;;;19.15;12.23;;;22.30;59.50;;;;;;6199309;28;83642;-61
2021/09/29 16:48:48;;;;;;;23.17;13.75;;;22.40;59.30;;;;;;6197326;28;83320;-61
2021/09/29 16:51:57;;;;;;;19.58;12.57;;;22.30;59.70;;;;;;6212016;28;82886;-62
2021/09/29 16:55:02;;;;;;;21.85;12.30;;;22.30;59.70;;;;;;6219949;28;83481;-61
2021/09/29 16:59:10;;;;;;;21.38;12.38;;;22.30;59.50;;;;;;6217682;28;83119;-62
2021/09/29 17:01:32;;;;;;;20.67;13.38;;;22.40;59.60;;;;;;6214001;28;83710;-63
2021/09/29 17:04:33;;;;;;;20.13;12.15;;;22.40;59.50;;;;;;6222873;28;83155;-62
2021/09/29 17:07:34;;;;;;;21.73;11.57;;;22.40;59.50;;;;;;6223121;27;82756;-60
2021/09/29 17:10:34;;;;;;;19.25;11.35;;;22.40;59.70;;;;;;6220882;27;82991;-61
2021/09/29 17:13:41;;;;;;;21.35;12.40;;;22.40;59.00;;;;;;6228459;28;84631;-61
2021/09/29 17:16:42;;;;;;;23.88;11.82;;;22.40;59.00;;;;;;6229691;27;87915;-63
2021/09/29 17:19:42;;;;;;;18.13;11.45;;;22.40;58.80;;;;;;6230439;27;82891;-62
2021/09/29 17:22:43;;;;;;;28.45;11.50;;;22.40;58.80;;;;;;6228556;27;83174;-62
2021/09/29 17:25:45;;;;;;;21.65;11.93;;;22.40;58.90;;;;;;6219077;28;83032;-61
2021/09/29 17:28:53;;;;;;;23.38;11.45;;;22.40;59.30;;;;;;6228534;27;84341;-61
2021/09/29 17:54:24;;;;;;;18.65;11.23;;;22.30;61.90;;;;;;6218196;27;82764;-61
2021/09/29 17:57:26;;;;;;;22.17;12.27;;;22.30;62.60;;;;;;6226885;27;83317;-61
2021/09/29 18:00:30;;;;;;;22.42;12.05;;;22.30;62.20;;;;;;6230191;27;83112;-61
2021/09/29 18:04:13;;;;;;;18.33;11.20;;;22.40;61.70;;;;;;6226381;28;84245;-61
2021/09/29 18:10:04;;;;;;;18.17;11.77;;;22.40;60.10;;;;;;6224697;27;83882;-61
2021/09/29 18:13:09;;;;;;;24.15;11.90;;;22.40;60.00;;;;;;6230037;28;82972;-61
2021/09/29 18:16:09;;;;;;;17.55;11.15;;;22.30;60.00;;;;;;6226918;27;83009;-61
2021/09/29 18:19:10;;;;;;;21.20;11.77;;;22.30;60.10;;;;;;6221973;28;83646;-61
2021/09/29 18:22:11;;;;;;;19.92;12.25;;;22.30;60.10;;;;;;6221911;27;85914;-61
2021/09/29 18:25:12;;;;;;;19.98;11.90;;;22.30;60.20;;;;;;6219025;28;83237;-60
2021/09/29 18:28:12;;;;;;;23.50;12.57;;;22.30;60.40;;;;;;6214680;28;83032;-61
2021/09/29 18:31:13;;;;;;;25.67;13.60;;;22.30;60.50;;;;;;6226946;27;83140;-60
2021/09/29 18:34:14;;;;;;;23.77;12.65;;;22.30;60.30;;;;;;6220993;27;83223;-62
2021/09/29 18:37:15;;;;;;;20.60;12.43;;;22.20;60.20;;;;;;6225556;27;83377;-60
2021/09/29 18:40:18;;;;;;;24.70;12.07;;;22.20;60.40;;;;;;6222148;27;83119;-61
2021/09/29 18:43:19;;;;;;;20.85;11.80;;;22.20;60.40;;;;;;6216733;27;84262;-61
2021/09/29 18:46:25;;;;;;;18.38;11.98;;;22.20;60.30;;;;;;6218932;28;83038;-61
2021/09/29 18:49:27;;;;;;;20.33;12.13;;;22.20;60.40;;;;;;6217272;28;83850;-61
2021/09/29 18:52:27;;;;;;;21.73;11.85;;;22.30;60.40;;;;;;6218797;27;84117;-61
2021/09/29 18:55:32;;;;;;;19.25;12.43;;;22.30;60.70;;;;;;6215751;27;83933;-61
2021/09/29 19:08:41;;;;;;;28.17;13.02;;;22.30;60.60;;;;;;6212399;28;83596;-60
2021/09/29 19:11:42;;;;;;;20.58;12.27;;;22.30;60.40;;;;;;6194689;28;83823;-60
2021/09/29 19:14:42;;;;;;;19.13;12.82;;;22.30;60.40;;;;;;6186729;27;84022;-60
2021/09/29 19:17:44;;;;;;;20.40;12.75;;;22.30;60.50;;;;;;6191463;28;84194;-62
2021/09/29 19:20:44;;;;;;;19.50;12.25;;;22.30;60.50;;;;;;6194785;27;83524;-60
2021/09/29 19:23:46;;;;;;;20.00;11.70;;;22.30;60.30;;;;;;6191481;27;84564;-60
2021/09/29 19:26:47;;;;;;;19.52;12.75;;;22.30;60.30;;;;;;6204744;28;83393;-61
2021/09/29 19:29:47;;;;;;;17.95;12.10;;;22.30;60.30;;;;;;6214266;28;84282;-62
2021/09/29 19:32:50;;;;;;;24.77;12.98;;;22.30;60.30;;;;;;6213425;28;84293;-63
2021/09/29 19:35:51;;;;;;;19.63;11.32;;;22.30;60.00;;;;;;6220487;27;83012;-62
2021/09/29 19:38:51;;;;;;;22.02;11.65;;;22.30;60.20;;;;;;6211711;27;83855;-63
2021/09/29 19:41:52;;;;;;;18.83;11.90;;;22.30;60.10;;;;;;6214836;27;83335;-63
2021/09/29 19:44:56;;;;;;;18.27;12.05;;;22.30;60.10;;;;;;6210708;28;83425;-62